sensor_id;sensor_type;location;lat;lon;timestamp;temperature;humidity
9095;DHT22;4583;49.796;9.902;2022-07-10T00:09:14;18.20;94.50
9095;DHT22;4583;49.796;9.902;2022-07-10T00:19:16;18.10;94.40
9095;DHT22;4583;49.796;9.902;2022-07-10T00:29:17;18.00;94.60
9095;DHT22;4583;49.796;9.902;2022-07-10T00:39:20;17.90;94.90
9095;DHT22;4583;49.796;9.902;2022-07-10T00:49:22;17.80;95.10
9095;DHT22;4583;49.796;9.902;2022-07-10T00:59:25;17.80;95.20
9095;DHT22;4583;49.796;9.902;2022-07-10T01:09:27;17.70;95.20
9095;DHT22;4583;49.796;9.902;2022-07-10T01:19:30;17.70;95.20
9095;DHT22;4583;49.796;9.902;2022-07-10T01:29:32;17.70;95.00
9095;DHT22;4583;49.796;9.902;2022-07-10T01:39:34;17.60;94.90
9095;DHT22;4583;49.796;9.902;2022-07-10T01:49:36;17.60;94.60
9095;DHT22;4583;49.796;9.902;2022-07-10T01:59:39;17.60;94.40
9095;DHT22;4583;49.796;9.902;2022-07-10T02:32:26;17.50;93.70
9095;DHT22;4583;49.796;9.902;2022-07-10T02:42:28;17.40;93.70
9095;DHT22;4583;49.796;9.902;2022-07-10T02:52:30;17.20;93.70
9095;DHT22;4583;49.796;9.902;2022-07-10T03:02:32;17.10;93.50
9095;DHT22;4583;49.796;9.902;2022-07-10T03:12:34;17.10;93.30
9095;DHT22;4583;49.796;9.902;2022-07-10T03:22:36;17.00;93.20
9095;DHT22;4583;49.796;9.902;2022-07-10T03:32:38;16.80;92.70
9095;DHT22;4583;49.796;9.902;2022-07-10T03:42:39;16.70;92.20
9095;DHT22;4583;49.796;9.902;2022-07-10T03:52:41;16.60;90.60
9095;DHT22;4583;49.796;9.902;2022-07-10T04:02:43;16.50;90.00
9095;DHT22;4583;49.796;9.902;2022-07-10T04:12:45;16.60;89.30
9095;DHT22;4583;49.796;9.902;2022-07-10T04:22:47;16.70;88.70
9095;DHT22;4583;49.796;9.902;2022-07-10T04:32:48;16.60;88.40
9095;DHT22;4583;49.796;9.902;2022-07-10T04:42:50;16.60;88.50
9095;DHT22;4583;49.796;9.902;2022-07-10T04:52:52;16.60;88.40
9095;DHT22;4583;49.796;9.902;2022-07-10T05:02:54;16.80;87.80
9095;DHT22;4583;49.796;9.902;2022-07-10T05:12:55;16.80;86.80
9095;DHT22;4583;49.796;9.902;2022-07-10T05:22:57;16.90;86.70
9095;DHT22;4583;49.796;9.902;2022-07-10T05:32:59;17.10;85.20
9095;DHT22;4583;49.796;9.902;2022-07-10T05:43:01;17.10;83.90
9095;DHT22;4583;49.796;9.902;2022-07-10T05:53:03;17.20;81.90
9095;DHT22;4583;49.796;9.902;2022-07-10T06:03:05;17.20;79.60
9095;DHT22;4583;49.796;9.902;2022-07-10T06:13:07;17.30;78.80
9095;DHT22;4583;49.796;9.902;2022-07-10T06:23:09;17.30;77.70
9095;DHT22;4583;49.796;9.902;2022-07-10T06:33:11;17.10;76.60
9095;DHT22;4583;49.796;9.902;2022-07-10T06:43:13;17.20;75.80
9095;DHT22;4583;49.796;9.902;2022-07-10T06:53:15;17.60;75.20
9095;DHT22;4583;49.796;9.902;2022-07-10T07:03:17;17.60;73.40
9095;DHT22;4583;49.796;9.902;2022-07-10T07:13:19;17.40;72.80
9095;DHT22;4583;49.796;9.902;2022-07-10T07:23:22;17.70;72.20
9095;DHT22;4583;49.796;9.902;2022-07-10T07:33:24;17.70;69.70
9095;DHT22;4583;49.796;9.902;2022-07-10T07:43:25;17.90;67.20
9095;DHT22;4583;49.796;9.902;2022-07-10T07:53:27;18.10;65.20
9095;DHT22;4583;49.796;9.902;2022-07-10T08:03:29;18.10;64.30
9095;DHT22;4583;49.796;9.902;2022-07-10T08:13:51;17.80;63.00
9095;DHT22;4583;49.796;9.902;2022-07-10T08:23:53;17.90;61.50
9095;DHT22;4583;49.796;9.902;2022-07-10T08:33:55;17.90;61.40
9095;DHT22;4583;49.796;9.902;2022-07-10T08:43:57;18.00;61.10
9095;DHT22;4583;49.796;9.902;2022-07-10T08:54:00;18.50;60.40
9095;DHT22;4583;49.796;9.902;2022-07-10T09:04:02;18.60;57.80
9095;DHT22;4583;49.796;9.902;2022-07-10T09:14:05;18.50;56.50
9095;DHT22;4583;49.796;9.902;2022-07-10T09:24:10;18.70;56.00
9095;DHT22;4583;49.796;9.902;2022-07-10T09:34:11;18.70;56.00
9095;DHT22;4583;49.796;9.902;2022-07-10T09:44:14;18.80;55.90
9095;DHT22;4583;49.796;9.902;2022-07-10T09:54:16;18.80;56.00
9095;DHT22;4583;49.796;9.902;2022-07-10T10:04:21;18.80;56.00
9095;DHT22;4583;49.796;9.902;2022-07-10T10:14:27;18.90;56.10
9095;DHT22;4583;49.796;9.902;2022-07-10T10:24:31;19.40;56.00
9095;DHT22;4583;49.796;9.902;2022-07-10T10:34:47;19.50;55.70
9095;DHT22;4583;49.796;9.902;2022-07-10T10:45:32;19.60;55.40
9095;DHT22;4583;49.796;9.902;2022-07-10T10:55:37;19.60;55.30
9095;DHT22;4583;49.796;9.902;2022-07-10T11:05:39;19.80;54.90
9095;DHT22;4583;49.796;9.902;2022-07-10T11:15:47;19.90;54.40
9095;DHT22;4583;49.796;9.902;2022-07-10T11:25:53;19.90;54.60
9095;DHT22;4583;49.796;9.902;2022-07-10T11:36:16;20.00;55.10
9095;DHT22;4583;49.796;9.902;2022-07-10T11:46:20;20.00;55.40
9095;DHT22;4583;49.796;9.902;2022-07-10T11:56:23;20.20;54.90
9095;DHT22;4583;49.796;9.902;2022-07-10T12:06:26;20.30;55.10
9095;DHT22;4583;49.796;9.902;2022-07-10T12:16:35;20.50;54.90
9095;DHT22;4583;49.796;9.902;2022-07-10T12:26:39;20.40;55.20
9095;DHT22;4583;49.796;9.902;2022-07-10T12:36:51;20.40;55.20
9095;DHT22;4583;49.796;9.902;2022-07-10T12:47:11;20.60;55.00
9095;DHT22;4583;49.796;9.902;2022-07-10T12:57:14;20.60;55.30
9095;DHT22;4583;49.796;9.902;2022-07-10T13:07:17;20.70;54.60
9095;DHT22;4583;49.796;9.902;2022-07-10T13:17:18;20.80;54.10
9095;DHT22;4583;49.796;9.902;2022-07-10T13:27:20;20.70;54.40
9095;DHT22;4583;49.796;9.902;2022-07-10T13:37:22;20.50;54.60
9095;DHT22;4583;49.796;9.902;2022-07-10T13:47:25;20.50;54.50
9095;DHT22;4583;49.796;9.902;2022-07-10T13:57:27;20.70;54.20
9095;DHT22;4583;49.796;9.902;2022-07-10T14:07:28;21.00;54.80
9095;DHT22;4583;49.796;9.902;2022-07-10T14:17:34;21.00;54.00
9095;DHT22;4583;49.796;9.902;2022-07-10T14:27:36;21.00;54.20
9095;DHT22;4583;49.796;9.902;2022-07-10T14:37:37;21.30;54.30
9095;DHT22;4583;49.796;9.902;2022-07-10T14:47:39;21.80;53.70
9095;DHT22;4583;49.796;9.902;2022-07-10T14:57:41;21.80;53.20
9095;DHT22;4583;49.796;9.902;2022-07-10T15:07:43;21.70;53.20
9095;DHT22;4583;49.796;9.902;2022-07-10T15:17:45;21.50;52.50
9095;DHT22;4583;49.796;9.902;2022-07-10T15:27:46;21.30;53.20
9095;DHT22;4583;49.796;9.902;2022-07-10T15:37:48;21.10;53.70
9095;DHT22;4583;49.796;9.902;2022-07-10T15:47:50;21.20;53.90
9095;DHT22;4583;49.796;9.902;2022-07-10T15:57:52;21.20;54.00
9095;DHT22;4583;49.796;9.902;2022-07-10T16:07:53;21.20;53.80
9095;DHT22;4583;49.796;9.902;2022-07-10T16:17:55;21.90;53.50
9095;DHT22;4583;49.796;9.902;2022-07-10T16:27:57;21.50;53.80
9095;DHT22;4583;49.796;9.902;2022-07-10T16:37:59;21.40;54.10
9095;DHT22;4583;49.796;9.902;2022-07-10T16:48:00;21.40;54.10
9095;DHT22;4583;49.796;9.902;2022-07-10T16:58:02;21.40;54.40
9095;DHT22;4583;49.796;9.902;2022-07-10T17:08:04;21.20;54.60
9095;DHT22;4583;49.796;9.902;2022-07-10T17:18:09;21.00;55.20
9095;DHT22;4583;49.796;9.902;2022-07-10T17:28:11;21.00;55.90
9095;DHT22;4583;49.796;9.902;2022-07-10T17:38:13;20.90;56.40
9095;DHT22;4583;49.796;9.902;2022-07-10T17:48:16;20.60;56.60
9095;DHT22;4583;49.796;9.902;2022-07-10T17:58:18;20.50;57.00
9095;DHT22;4583;49.796;9.902;2022-07-10T18:08:20;20.50;57.50
9095;DHT22;4583;49.796;9.902;2022-07-10T18:18:22;20.50;57.80
9095;DHT22;4583;49.796;9.902;2022-07-10T18:28:25;20.50;57.70
9095;DHT22;4583;49.796;9.902;2022-07-10T18:38:28;20.50;58.40
9095;DHT22;4583;49.796;9.902;2022-07-10T18:48:30;20.50;58.30
9095;DHT22;4583;49.796;9.902;2022-07-10T18:58:31;20.40;58.50
9095;DHT22;4583;49.796;9.902;2022-07-10T19:08:33;20.20;58.90
9095;DHT22;4583;49.796;9.902;2022-07-10T19:18:35;20.00;59.30
9095;DHT22;4583;49.796;9.902;2022-07-10T19:28:37;20.00;60.00
9095;DHT22;4583;49.796;9.902;2022-07-10T19:38:39;19.90;60.80
9095;DHT22;4583;49.796;9.902;2022-07-10T19:48:40;19.90;61.30
9095;DHT22;4583;49.796;9.902;2022-07-10T19:58:49;19.90;62.00
9095;DHT22;4583;49.796;9.902;2022-07-10T20:08:50;19.70;63.60
9095;DHT22;4583;49.796;9.902;2022-07-10T20:18:52;19.60;64.90
9095;DHT22;4583;49.796;9.902;2022-07-10T20:28:54;19.60;65.60
9095;DHT22;4583;49.796;9.902;2022-07-10T20:38:56;19.70;66.20
9095;DHT22;4583;49.796;9.902;2022-07-10T20:48:59;19.70;66.50
9095;DHT22;4583;49.796;9.902;2022-07-10T20:59:00;19.70;67.20
9095;DHT22;4583;49.796;9.902;2022-07-10T21:09:02;19.60;67.80
9095;DHT22;4583;49.796;9.902;2022-07-10T21:19:04;19.50;68.60
9095;DHT22;4583;49.796;9.902;2022-07-10T21:29:06;19.30;69.60
9095;DHT22;4583;49.796;9.902;2022-07-10T21:39:09;19.30;70.50
9095;DHT22;4583;49.796;9.902;2022-07-10T21:49:11;19.30;70.80
9095;DHT22;4583;49.796;9.902;2022-07-10T21:59:12;19.20;71.50
9095;DHT22;4583;49.796;9.902;2022-07-10T22:09:14;19.10;72.30
9095;DHT22;4583;49.796;9.902;2022-07-10T22:19:17;19.10;73.10
9095;DHT22;4583;49.796;9.902;2022-07-10T22:29:18;19.00;73.80
9095;DHT22;4583;49.796;9.902;2022-07-10T22:39:21;19.00;74.30
9095;DHT22;4583;49.796;9.902;2022-07-10T22:49:22;19.00;75.00
9095;DHT22;4583;49.796;9.902;2022-07-10T22:59:24;18.80;76.70
9095;DHT22;4583;49.796;9.902;2022-07-10T23:09:26;18.60;77.90
9095;DHT22;4583;49.796;9.902;2022-07-10T23:19:28;18.50;78.90
9095;DHT22;4583;49.796;9.902;2022-07-10T23:29:29;18.50;79.60
9095;DHT22;4583;49.796;9.902;2022-07-10T23:39:31;18.40;80.40
9095;DHT22;4583;49.796;9.902;2022-07-10T23:49:35;18.40;81.30
9095;DHT22;4583;49.796;9.902;2022-07-10T23:59:56;18.40;82.00
